Time;durP1;ratioP1;P1;durP2;ratioP2;P2;SDS_P1;SDS_P2;PMS_P1;PMS_P2;Temp;Humidity;BMP_temperature;BMP_pressure;BME280_temperature;BME280_humidity;BME280_pressure;Samples;Min_cycle;Max_cycle;Signal;HPM_P1;HPM_P2
2021/09/27 00:00:42;;;;;;;0.10;0.10;;;;;;;19.35;64.82;101517.16;5049377;28;20083;-81
2021/09/27 00:03:09;;;;;;;0.32;0.32;;;;;;;19.28;65.49;101509.44;5049534;28;20040;-81
2021/09/27 00:05:36;;;;;;;1.13;0.43;;;;;;;19.28;65.64;101509.44;5049665;28;20108;-81
2021/09/27 00:08:03;;;;;;;0.20;0.20;;;;;;;19.28;65.55;101515.69;5050049;28;20059;-81
2021/09/27 00:10:36;;;;;;;0.10;0.10;;;;;;;19.28;65.40;101507.63;5049878;28;20041;-80
2021/09/27 00:13:03;;;;;;;0.10;0.10;;;;;;;19.26;65.40;101504.13;5047991;28;20460;-81
2021/09/27 00:15:34;;;;;;;0.40;0.40;;;;;;;19.27;65.25;101510.38;5036152;28;20029;-81
2021/09/27 00:18:01;;;;;;;0.35;0.30;;;;;;;19.22;65.16;101499.84;5036380;28;20108;-80
2021/09/27 00:20:28;;;;;;;0.17;0.17;;;;;;;19.22;65.16;101499.84;5036218;28;20389;-80
2021/09/27 00:22:55;;;;;;;0.00;0.00;;;;;;;19.20;65.01;101499.94;5036083;28;20033;-81
2021/09/27 00:25:23;;;;;;;2.28;0.47;;;;;;;19.20;64.92;101497.25;5035976;28;20026;-81
2021/09/27 00:27:50;;;;;;;0.45;0.45;;;;;;;19.19;64.62;101499.97;5036582;28;20021;-81
2021/09/27 00:30:18;;;;;;;0.10;0.10;;;;;;;19.16;64.86;101500.13;5045372;22;20042;-83
2021/09/27 00:32:45;;;;;;;0.30;0.30;;;;;;;19.15;64.71;101493.00;5012511;28;20165;-83
2021/09/27 00:35:16;;;;;;;0.13;0.13;;;;;;;19.14;64.56;101491.25;5015628;28;20037;-84
2021/09/27 00:37:43;;;;;;;0.10;0.10;;;;;;;19.12;64.77;101491.34;5016041;28;20083;-84
2021/09/27 00:40:13;;;;;;;0.30;0.30;;;;;;;19.12;64.90;101487.78;5016009;28;20117;-84
2021/09/27 00:42:40;;;;;;;0.03;0.03;;;;;;;19.07;65.15;101480.78;5003267;28;20165;-84
2021/09/27 00:45:08;;;;;;;0.10;0.10;;;;;;;19.03;66.00;101484.56;5012428;28;20034;-84
2021/09/27 00:47:36;;;;;;;0.10;0.10;;;;;;;19.02;65.87;101480.13;5011675;28;20033;-85
2021/09/27 00:50:03;;;;;;;0.20;0.20;;;;;;;19.02;65.23;101465.84;5003829;28;20386;-78
2021/09/27 00:52:30;;;;;;;0.10;0.10;;;;;;;18.97;66.38;101463.38;5004324;28;20031;-84
2021/09/27 00:54:56;;;;;;;0.75;0.75;;;;;;;18.97;65.45;101466.06;5010849;28;20026;-82
2021/09/27 00:57:25;;;;;;;0.38;0.38;;;;;;;18.95;65.69;101464.38;4999422;28;20031;-80
2021/09/27 00:59:54;;;;;;;0.82;0.82;;;;;;;18.93;65.55;101472.50;5009034;28;20023;-82
2021/09/27 01:02:21;;;;;;;0.22;0.22;;;;;;;18.90;65.51;101467.22;5009627;28;20088;-85
2021/09/27 01:04:47;;;;;;;0.20;0.20;;;;;;;18.89;65.40;101473.53;5003253;28;20425;-82
2021/09/27 01:07:41;;;;;;;0.32;0.32;;;;;;;18.94;65.25;101479.63;5004394;28;20029;-82
2021/09/27 01:10:40;;;;;;;0.10;0.10;;;;;;;18.91;65.34;101477.06;5002833;28;20045;-84
2021/09/27 01:13:36;;;;;;;0.50;0.50;;;;;;;18.87;65.46;101476.28;5014999;28;20036;-84
2021/09/27 01:31:31;;;;;;;0.30;0.30;;;;;;;18.70;66.25;101447.50;5079576;27;20404;-85
2021/09/27 01:34:04;;;;;;;0.28;0.28;;;;;;;18.67;66.67;101469.13;5057722;28;20044;-84
2021/09/27 01:39:42;;;;;;;1.08;0.90;;;;;;;18.74;66.86;101462.56;5148281;27;20200;-85
2021/09/27 01:42:28;;;;;;;0.35;0.35;;;;;;;18.70;67.14;101455.56;5120820;28;20405;-85
2021/09/27 01:45:03;;;;;;;5.68;1.50;;;;;;;18.65;67.48;101454.91;5116483;28;20466;-85
2021/09/27 01:47:38;;;;;;;0.10;0.10;;;;;;;18.70;66.92;101454.69;5128167;28;20085;-85
2021/09/27 01:50:15;;;;;;;0.15;0.15;;;;;;;18.70;67.39;101460.94;5119132;28;20020;-82
2021/09/27 01:52:51;;;;;;;0.50;0.50;;;;;;;18.73;66.79;101460.81;5118123;28;20032;-82
2021/09/27 02:00:49;;;;;;;0.10;0.10;;;;;;;18.70;66.93;101479.72;5047743;28;20460;-84
2021/09/27 02:06:34;;;;;;;0.30;0.30;;;;;;;18.74;66.63;101475.97;5062473;28;20589;-84
2021/09/27 02:09:26;;;;;;;1.02;0.52;;;;;;;18.64;67.77;101471.97;5049821;28;20041;-85
2021/09/27 02:12:05;;;;;;;1.10;1.00;;;;;;;18.63;67.60;101467.53;5036859;28;20068;-84
2021/09/27 02:23:10;;;;;;;0.15;0.15;;;;;;;18.56;67.61;101463.38;5070808;28;20455;-83
2021/09/27 02:25:39;;;;;;;0.47;0.47;;;;;;;18.52;67.53;101461.78;5054770;28;20048;-88
2021/09/27 02:28:09;;;;;;;0.25;0.25;;;;;;;18.52;67.45;101462.63;5062471;28;20038;-86
2021/09/27 02:36:29;;;;;;;0.17;0.17;;;;;;;18.58;68.17;101457.00;5050395;28;20470;-85
2021/09/27 02:42:03;;;;;;;0.10;0.10;;;;;;;18.83;67.91;101466.66;5070337;27;20903;-84
2021/09/27 02:44:30;;;;;;;0.20;0.20;;;;;;;18.83;67.97;101461.28;5038990;28;20127;-84
2021/09/27 02:46:57;;;;;;;0.20;0.20;;;;;;;18.81;68.33;101456.91;5046055;28;20036;-83
2021/09/27 02:49:28;;;;;;;0.20;0.20;;;;;;;18.95;67.61;101457.19;5033982;28;20026;-85
2021/09/27 02:51:58;;;;;;;0.68;0.68;;;;;;;19.00;67.65;101457.84;5042836;28;20025;-85
2021/09/27 02:54:45;;;;;;;0.30;0.30;;;;;;;19.09;67.53;101451.22;5041501;28;20104;-85
2021/09/27 02:57:42;;;;;;;0.68;0.65;;;;;;;19.12;67.51;101452.88;5033876;28;20034;-85
2021/09/27 03:11:43;;;;;;;0.10;0.10;;;;;;;18.94;67.32;101436.66;5077003;27;20162;-85
2021/09/27 03:14:47;;;;;;;0.88;0.88;;;;;;;18.88;67.50;101442.28;5059692;28;20036;-86
2021/09/27 03:17:33;;;;;;;1.08;0.98;;;;;;;18.83;67.50;101444.28;5068879;28;20104;-86
2021/09/27 03:23:34;;;;;;;1.00;1.00;;;;;;;18.83;67.34;101433.53;5091070;28;20451;-86
2021/09/27 03:38:20;;;;;;;0.10;0.10;;;;;;;18.66;67.62;101424.44;5086385;27;20429;-78
2021/09/27 03:43:57;;;;;;;0.38;0.38;;;;;;;18.63;67.43;101426.38;5075330;28;20895;-79
2021/09/27 03:46:49;;;;;;;0.10;0.10;;;;;;;18.55;68.12;101424.06;5079833;28;20033;-79
2021/09/27 03:49:27;;;;;;;0.30;0.30;;;;;;;18.56;67.60;101431.16;5066269;28;20043;-79
2021/09/27 03:52:15;;;;;;;0.10;0.10;;;;;;;18.53;67.62;101425.91;5064039;28;20050;-80
2021/09/27 03:54:52;;;;;;;0.10;0.10;;;;;;;18.52;67.98;101419.69;5077619;28;20025;-80
2021/09/27 04:00:10;;;;;;;0.13;0.13;;;;;;;18.49;67.64;101418.94;5034928;28;20439;-81
2021/09/27 04:02:41;;;;;;;;;;;;;;;18.57;67.21;101411.44;5023796;28;20060;-80
2021/09/27 04:05:19;;;;;;;0.40;0.40;;;;;;;18.46;67.53;101422.66;5014107;28;19914;-79
2021/09/27 04:13:56;;;;;;;0.55;0.55;;;;;;;18.33;67.79;101425.00;5116956;27;20391;-80
2021/09/27 04:17:02;;;;;;;0.10;0.10;;;;;;;18.36;67.73;101422.19;5121004;28;20032;-80
2021/09/27 04:19:42;;;;;;;0.77;0.77;;;;;;;18.30;68.14;101413.53;5126934;28;20432;-79
2021/09/27 04:22:18;;;;;;;0.35;0.35;;;;;;;18.29;68.06;101406.41;5107509;28;20085;-80
2021/09/27 04:25:09;;;;;;;0.10;0.10;;;;;;;18.29;68.38;101409.97;5113101;28;20028;-80
2021/09/27 04:31:01;;;;;;;0.25;0.25;;;;;;;18.25;68.18;101411.91;5084900;27;20419;-80
2021/09/27 04:36:47;;;;;;;0.52;0.52;;;;;;;18.16;68.81;101400.72;5090826;28;20971;-79
2021/09/27 04:39:17;;;;;;;0.25;0.25;;;;;;;18.15;68.52;101393.59;5070386;28;20040;-80
2021/09/27 04:42:14;;;;;;;0.22;0.22;;;;;;;18.19;68.25;101396.06;5054396;28;20037;-79
2021/09/27 04:47:52;;;;;;;0.10;0.10;;;;;;;18.10;68.39;101394.66;5093617;27;20412;-80
2021/09/27 04:50:50;;;;;;;1.40;1.30;;;;;;;18.09;68.18;101398.31;5100767;28;20032;-80
2021/09/27 04:53:52;;;;;;;0.70;0.70;;;;;;;18.08;68.43;101393.88;5107273;28;20118;-80
2021/09/27 04:56:56;;;;;;;0.60;0.57;;;;;;;17.99;68.98;101394.25;5095275;28;20093;-80
2021/09/27 04:59:52;;;;;;;0.65;0.65;;;;;;;18.00;69.09;101385.28;5107170;28;20118;-80
2021/09/27 05:11:18;;;;;;;0.43;0.43;;;;;;;18.07;69.34;101386.75;5066613;27;20415;-80
2021/09/27 05:13:58;;;;;;;0.30;0.30;;;;;;;18.06;69.57;101376.97;5052670;27;20043;-80
2021/09/27 05:22:37;;;;;;;0.15;0.15;;;;;;;18.14;69.58;101376.63;5072941;27;20419;-80
2021/09/27 05:28:36;;;;;;;1.00;1.00;;;;;;;18.20;69.12;101376.38;5070364;28;20410;-80
2021/09/27 05:31:31;;;;;;;0.00;0.00;;;;;;;18.23;69.62;101376.25;5082402;28;20479;-80
2021/09/27 05:34:14;;;;;;;0.43;0.43;;;;;;;18.26;69.27;101375.25;5064680;28;20111;-81
2021/09/27 05:37:07;;;;;;;0.20;0.20;;;;;;;18.25;69.83;101365.44;5076991;28;20526;-79
2021/09/27 05:39:42;;;;;;;;;;;;;;;18.28;69.34;101365.31;5063233;28;20031;-79
2021/09/27 05:48:18;;;;;;;6.72;0.65;;;;;;;18.36;69.13;101359.63;5090725;28;20803;-81
2021/09/27 05:51:07;;;;;;;0.10;0.10;;;;;;;18.30;68.94;101350.00;5070755;28;20037;-81
2021/09/27 05:54:00;;;;;;;0.77;0.77;;;;;;;18.38;68.66;101342.50;5065290;28;20035;-81
2021/09/27 05:56:32;;;;;;;;;;;;;;;18.47;68.51;101343.00;5060012;28;20041;-80
2021/09/27 06:02:06;;;;;;;0.10;0.10;;;;;;;18.47;68.69;101345.69;5069595;28;20488;-80
2021/09/27 06:13:01;;;;;;;0.15;0.15;;;;;;;18.56;69.24;101346.16;5087505;27;20495;-80
2021/09/27 06:15:41;;;;;;;0.75;0.63;;;;;;;18.62;69.26;101342.34;5059717;28;20068;-80
2021/09/27 06:21:27;;;;;;;0.10;0.10;;;;;;;18.83;69.19;101353.00;5076699;27;20414;-81
2021/09/27 06:24:22;;;;;;;0.15;0.15;;;;;;;18.94;69.16;101345.38;5054110;28;20048;-79
2021/09/27 06:27:01;;;;;;;0.20;0.20;;;;;;;19.00;68.95;101347.75;5056273;28;20471;-80
2021/09/27 06:29:41;;;;;;;0.28;0.28;;;;;;;18.98;69.05;101346.06;5067187;28;20021;-80
2021/09/27 06:32:27;;;;;;;0.50;0.50;;;;;;;19.08;68.90;101331.28;5059408;28;20071;-79
2021/09/27 06:34:58;;;;;;;0.30;0.30;;;;;;;19.08;68.82;101337.50;5055462;28;20052;-80
2021/09/27 06:37:27;;;;;;;1.00;0.98;;;;;;;19.15;68.82;101337.22;5066766;28;20025;-80
2021/09/27 06:39:54;;;;;;;7.95;1.70;;;;;;;19.14;68.65;101327.41;5056839;28;20033;-79
2021/09/27 06:42:20;;;;;;;0.73;0.73;;;;;;;19.22;68.59;101330.59;5069347;28;20028;-79
2021/09/27 06:44:47;;;;;;;0.75;0.65;;;;;;;19.23;68.38;101325.16;5057571;28;20041;-79
2021/09/27 06:47:15;;;;;;;0.80;0.80;;;;;;;19.32;68.34;101313.09;5063050;28;20423;-79
2021/09/27 06:49:42;;;;;;;0.85;0.85;;;;;;;19.27;68.36;101319.66;5055191;28;20614;-77
2021/09/27 06:52:11;;;;;;;0.17;0.17;;;;;;;19.38;68.11;101304.72;5064860;28;20115;-78
2021/09/27 06:54:37;;;;;;;0.77;0.77;;;;;;;19.43;67.99;101309.00;5057422;28;20031;-79
2021/09/27 06:57:03;;;;;;;0.75;0.75;;;;;;;19.49;67.88;101297.94;5057632;28;20056;-79
2021/09/27 06:59:29;;;;;;;0.17;0.17;;;;;;;19.51;67.88;101296.03;5055233;28;20515;-80
2021/09/27 07:01:55;;;;;;;0.45;0.45;;;;;;;19.52;67.89;101289.72;5065199;28;20080;-78
2021/09/27 07:04:21;;;;;;;0.30;0.30;;;;;;;19.58;67.83;101299.28;5058622;28;20057;-80
2021/09/27 07:06:48;;;;;;;0.63;0.63;;;;;;;19.52;67.83;101287.91;5064010;28;20025;-78
2021/09/27 07:09:14;;;;;;;0.10;0.10;;;;;;;19.66;67.58;101281.81;5053191;28;20033;-79
2021/09/27 07:11:44;;;;;;;0.38;0.38;;;;;;;19.69;67.68;101284.38;5065183;28;20056;-79
2021/09/27 07:14:11;;;;;;;1.80;1.70;;;;;;;19.70;67.53;101295.97;5063886;28;20020;-78
2021/09/27 07:16:38;;;;;;;0.52;0.52;;;;;;;19.76;67.69;101284.91;5065093;28;20032;-79
2021/09/27 07:19:06;;;;;;;0.30;0.30;;;;;;;19.79;67.55;101281.19;5060230;28;20040;-79
2021/09/27 07:21:35;;;;;;;0.60;0.60;;;;;;;19.80;67.61;101296.38;5053530;28;20139;-79
2021/09/27 07:24:02;;;;;;;0.40;0.40;;;;;;;19.80;67.38;101285.63;5061728;28;20029;-79
2021/09/27 07:26:29;;;;;;;0.20;0.20;;;;;;;19.81;67.68;101290.06;5060991;28;20087;-79
2021/09/27 07:28:57;;;;;;;3.45;2.08;;;;;;;19.74;67.54;101292.19;5062582;28;20028;-79
2021/09/27 07:31:26;;;;;;;5.03;0.77;;;;;;;19.79;67.46;101287.44;5052575;28;20033;-78
2021/09/27 07:33:53;;;;;;;0.55;0.55;;;;;;;19.95;67.39;101283.97;5047395;28;20037;-78
2021/09/27 07:36:19;;;;;;;5.00;2.88;;;;;;;19.86;67.45;101286.22;5048377;28;20052;-77
2021/09/27 07:38:45;;;;;;;0.32;0.32;;;;;;;20.00;67.36;101298.94;5054042;28;20387;-79
2021/09/27 07:41:12;;;;;;;0.63;0.63;;;;;;;20.14;67.05;101300.03;5049086;28;20033;-79
2021/09/27 07:43:39;;;;;;;0.10;0.10;;;;;;;20.17;67.40;101305.25;5054822;28;20467;-77
2021/09/27 07:46:05;;;;;;;0.20;0.20;;;;;;;20.07;67.70;101304.00;5047488;28;20477;-79
2021/09/27 07:48:32;;;;;;;0.40;0.40;;;;;;;20.06;67.48;101313.00;5045691;28;20116;-80
2021/09/27 07:50:58;;;;;;;0.52;0.52;;;;;;;20.23;67.25;101293.31;5053539;28;20017;-80
2021/09/27 07:53:26;;;;;;;0.40;0.40;;;;;;;20.25;67.39;101277.91;5045565;28;20033;-80
2021/09/27 07:55:53;;;;;;;3.67;1.23;;;;;;;20.33;67.37;101273.88;5049260;28;20025;-80
2021/09/27 07:58:20;;;;;;;1.15;1.05;;;;;;;20.45;67.11;101290.28;5045856;28;20484;-80
2021/09/27 08:00:49;;;;;;;0.13;0.13;;;;;;;20.59;66.56;101292.25;5043557;28;20041;-80
2021/09/27 08:03:16;;;;;;;0.68;0.68;;;;;;;20.69;66.36;101264.72;5037682;28;20463;-79
2021/09/27 08:05:42;;;;;;;0.85;0.55;;;;;;;20.76;66.27;101275.16;5040603;28;20029;-80
2021/09/27 08:08:09;;;;;;;0.52;0.52;;;;;;;20.76;66.09;101280.56;5046682;28;20029;-78
2021/09/27 08:10:38;;;;;;;0.25;0.25;;;;;;;20.81;65.63;101279.34;5047975;28;20428;-80
2021/09/27 08:13:05;;;;;;;1.15;1.05;;;;;;;20.67;65.67;101272.03;5041641;28;20429;-80
2021/09/27 08:15:35;;;;;;;0.65;0.65;;;;;;;20.74;65.66;101271.72;5051258;28;20372;-81
2021/09/27 08:18:03;;;;;;;0.85;0.85;;;;;;;20.71;65.85;101272.75;5043366;28;20078;-79
2021/09/27 08:20:38;;;;;;;0.73;0.73;;;;;;;20.78;65.78;101273.28;5054829;28;20036;-80
2021/09/27 08:23:04;;;;;;;0.30;0.30;;;;;;;20.71;65.85;101272.75;5038735;28;20037;-78
2021/09/27 08:25:31;;;;;;;3.42;0.65;;;;;;;20.67;65.81;101272.03;5035132;28;20540;-81
2021/09/27 08:27:59;;;;;;;0.52;0.52;;;;;;;20.68;66.08;101273.75;5041964;28;20036;-78
2021/09/27 08:30:31;;;;;;;0.25;0.25;;;;;;;20.76;66.01;101261.72;5044096;28;20029;-81
2021/09/27 08:32:59;;;;;;;0.70;0.70;;;;;;;20.84;65.97;101263.00;5050596;28;20112;-80
2021/09/27 08:35:27;;;;;;;14.60;1.55;;;;;;;20.94;65.76;101252.59;5041977;28;20123;-82
2021/09/27 08:37:54;;;;;;;0.90;0.85;;;;;;;20.99;65.58;101253.19;5048892;28;20029;-80
2021/09/27 08:40:59;;;;;;;0.47;0.47;;;;;;;21.29;65.13;101244.28;5052774;28;20056;-79
2021/09/27 08:49:37;;;;;;;0.10;0.10;;;;;;;21.74;63.96;101222.75;5081062;27;20400;-80
2021/09/27 08:52:05;;;;;;;1.05;1.02;;;;;;;21.83;63.66;101234.81;5046549;28;20029;-80
2021/09/27 08:54:33;;;;;;;0.73;0.73;;;;;;;21.92;63.29;101223.47;5062396;28;20020;-79
2021/09/27 08:59:55;;;;;;;1.00;1.00;;;;;;;22.03;62.42;101219.22;5072062;28;20841;-78
2021/09/27 09:02:53;;;;;;;0.25;0.25;;;;;;;22.11;62.15;101211.53;5048738;28;20036;-80
2021/09/27 09:05:41;;;;;;;1.25;1.00;;;;;;;22.02;62.05;101207.59;5048608;28;20033;-80
2021/09/27 09:08:36;;;;;;;0.47;0.47;;;;;;;22.10;62.01;101209.78;5040989;28;20029;-81
2021/09/27 09:13:53;;;;;;;0.68;0.68;;;;;;;22.09;62.10;101210.75;5091033;27;20418;-80
2021/09/27 09:16:23;;;;;;;0.10;0.10;;;;;;;22.09;61.25;101210.75;5070575;28;20122;-78
2021/09/27 09:18:54;;;;;;;0.15;0.15;;;;;;;22.02;61.36;101207.59;5069872;28;20033;-79
2021/09/27 09:24:25;;;;;;;0.17;0.17;;;;;;;22.04;61.28;101212.88;5069785;28;20468;-76
2021/09/27 09:26:56;;;;;;;0.50;0.50;;;;;;;21.97;61.29;101210.56;5050451;28;20036;-77
2021/09/27 09:29:27;;;;;;;0.35;0.35;;;;;;;21.93;60.84;101208.16;5046139;28;20021;-80
2021/09/27 09:32:00;;;;;;;0.10;0.10;;;;;;;21.97;61.20;101210.56;5030634;28;20034;-78
2021/09/27 09:37:13;;;;;;;0.82;0.52;;;;;;;22.06;60.54;101208.25;5077771;27;20471;-79
2021/09/27 09:39:52;;;;;;;0.13;0.13;;;;;;;22.16;60.96;101209.41;5066171;28;20098;-79
2021/09/27 09:45:08;;;;;;;0.10;0.10;;;;;;;22.27;60.26;101196.09;5069600;28;20387;-80
2021/09/27 09:47:34;;;;;;;0.10;0.10;;;;;;;22.33;59.86;101186.75;5060230;28;20020;-82
2021/09/27 09:50:25;;;;;;;0.28;0.28;;;;;;;22.34;59.91;101179.50;5081298;28;20033;-81
2021/09/27 09:52:55;;;;;;;0.30;0.30;;;;;;;22.53;59.44;101180.09;5049264;28;20523;-81
2021/09/27 09:55:44;;;;;;;0.20;0.20;;;;;;;22.71;59.52;101169.03;5052516;28;20029;-80
2021/09/27 09:58:27;;;;;;;0.20;0.20;;;;;;;22.68;58.89;101177.34;5060733;28;20025;-81
2021/09/27 10:03:38;;;;;;;0.75;0.75;;;;;;;22.76;58.41;101170.44;5076668;27;20467;-82
2021/09/27 10:06:15;;;;;;;0.28;0.28;;;;;;;22.98;58.38;101179.84;5061769;28;20033;-82
2021/09/27 10:08:52;;;;;;;0.25;0.25;;;;;;;23.01;58.06;101176.06;5052379;28;20021;-81
2021/09/27 10:14:59;;;;;;;0.43;0.43;;;;;;;23.02;57.36;101181.38;5087252;27;20425;-80
2021/09/27 10:17:38;;;;;;;0.10;0.10;;;;;;;22.92;57.35;101170.31;5062944;28;20405;-80
2021/09/27 10:22:56;;;;;;;0.25;0.25;;;;;;;22.80;57.52;101178.38;5118127;27;20396;-80
2021/09/27 10:28:19;;;;;;;1.92;0.80;;;;;;;22.85;57.71;101177.06;5060706;28;20534;-80
2021/09/27 10:30:53;;;;;;;0.10;0.10;;;;;;;22.85;57.73;101179.78;5043733;28;20034;-80
2021/09/27 10:33:25;;;;;;;1.08;0.82;;;;;;;22.78;58.05;101173.94;5037718;28;20404;-80
2021/09/27 10:36:16;;;;;;;0.10;0.10;;;;;;;22.87;57.72;101182.41;5036285;28;20025;-80
2021/09/27 10:38:52;;;;;;;1.65;0.65;;;;;;;22.83;58.22;101173.63;5036075;28;20112;-79
2021/09/27 10:41:42;;;;;;;0.43;0.43;;;;;;;22.68;58.28;101177.34;5045939;28;20037;-81
2021/09/27 10:44:19;;;;;;;0.10;0.10;;;;;;;22.82;57.89;101181.81;5044692;28;20025;-81
2021/09/27 10:46:50;;;;;;;0.15;0.15;;;;;;;22.84;58.17;101167.28;5039523;28;20113;-80
2021/09/27 10:49:25;;;;;;;0.10;0.10;;;;;;;23.04;57.99;101154.22;5034835;28;20473;-81
2021/09/27 10:51:58;;;;;;;2.40;1.55;;;;;;;23.12;57.78;101154.59;5047278;28;20396;-80
2021/09/27 10:54:44;;;;;;;;;;;;;;;23.33;56.89;101162.22;5050402;28;20064;-82
2021/09/27 10:57:17;;;;;;;0.10;0.10;;;;;;;23.17;57.16;101152.47;5040344;28;19924;-80
2021/09/27 11:00:29;;;;;;;0.20;0.20;;;;;;;23.31;57.03;101147.94;5030024;28;20065;-81
2021/09/27 11:03:19;;;;;;;1.13;0.75;;;;;;;23.36;57.51;101145.78;5029546;28;20042;-82
2021/09/27 11:06:08;;;;;;;0.10;0.10;;;;;;;23.42;57.12;101137.25;5029765;28;20072;-81
2021/09/27 11:14:21;;;;;;;0.10;0.10;;;;;;;23.92;55.31;101136.53;5070680;28;20924;-83
2021/09/27 11:17:07;;;;;;;0.10;0.10;;;;;;;24.13;54.66;101136.81;5070617;28;20087;-83
2021/09/27 11:28:13;;;;;;;0.13;0.13;;;;;;;24.27;52.97;101133.94;5070449;28;20471;-81
2021/09/27 11:31:03;;;;;;;0.30;0.30;;;;;;;24.35;53.38;101125.25;5058140;28;20025;-82
2021/09/27 11:42:12;;;;;;;0.10;0.10;;;;;;;24.43;52.67;101125.56;5066420;28;20441;-80
2021/09/27 11:53:27;;;;;;;0.10;0.10;;;;;;;24.29;53.04;101126.56;5079925;27;20433;-81
2021/09/27 11:56:08;;;;;;;0.20;0.20;;;;;;;24.34;53.50;101132.50;5068404;28;20391;-81
2021/09/27 11:59:06;;;;;;;0.20;0.20;;;;;;;24.03;54.15;101131.19;5066832;28;20124;-81
2021/09/27 12:04:43;;;;;;;0.20;0.20;;;;;;;23.73;55.15;101132.41;5052973;28;20422;-81
2021/09/27 12:07:14;;;;;;;0.10;0.10;;;;;;;23.56;55.55;101131.75;5072803;28;20029;-81
2021/09/27 12:12:28;;;;;;;0.10;0.10;;;;;;;23.53;56.11;101136.50;5058445;28;20471;-83
2021/09/27 12:14:59;;;;;;;0.10;0.10;;;;;;;23.50;56.40;101137.59;5046642;28;20112;-83
2021/09/27 12:17:32;;;;;;;0.10;0.10;;;;;;;23.40;57.02;101136.47;5042700;28;20059;-82
2021/09/27 12:20:06;;;;;;;0.10;0.10;;;;;;;23.34;57.43;101140.50;5047558;28;20095;-83
2021/09/27 12:22:36;;;;;;;0.40;0.38;;;;;;;23.21;58.06;101136.91;5046157;28;20043;-82
2021/09/27 12:25:11;;;;;;;0.10;0.10;;;;;;;23.20;58.55;101136.06;5036659;28;20079;-83
2021/09/27 12:27:50;;;;;;;0.10;0.10;;;;;;;23.14;58.45;101133.72;5051297;28;20120;-84
2021/09/27 12:30:16;;;;;;;0.20;0.20;;;;;;;22.94;59.99;101133.25;5042921;28;20037;-83
2021/09/27 12:32:47;;;;;;;0.10;0.10;;;;;;;23.00;59.65;101128.41;5037263;28;20033;-83
2021/09/27 12:35:20;;;;;;;0.10;0.10;;;;;;;22.86;60.04;101124.78;5044667;28;20124;-81
2021/09/27 12:37:52;;;;;;;0.13;0.13;;;;;;;22.93;60.15;101128.81;5037064;28;20021;-82
2021/09/27 12:40:18;;;;;;;;;;;;;;;22.92;59.94;101124.38;5048730;28;20036;-81
2021/09/27 12:45:35;;;;;;;3.40;1.27;;;;;;;22.69;61.17;101136.75;5106758;27;20407;-81
2021/09/27 12:48:06;;;;;;;0.88;0.65;;;;;;;22.44;61.47;101148.28;5110005;28;20036;-80
2021/09/27 12:50:34;;;;;;;0.30;0.30;;;;;;;22.39;62.34;101163.91;5096485;28;20032;-80
2021/09/27 12:53:08;;;;;;;0.30;0.30;;;;;;;22.05;63.50;101175.00;5110329;28;20132;-81
2021/09/27 12:55:44;;;;;;;0.88;0.35;;;;;;;21.89;65.05;101171.53;5093432;28;20089;-82
2021/09/27 12:58:23;;;;;;;0.32;0.32;;;;;;;21.71;65.57;101178.94;5089784;28;20024;-81
2021/09/27 13:00:50;;;;;;;0.25;0.25;;;;;;;21.47;65.08;101176.75;5072952;28;20550;-80
2021/09/27 13:03:23;;;;;;;0.10;0.10;;;;;;;21.24;66.10;101170.91;5085020;28;20131;-81
2021/09/27 13:06:03;;;;;;;0.15;0.15;;;;;;;20.92;67.47;101175.53;5099804;28;20032;-80
2021/09/27 13:08:44;;;;;;;2.22;1.48;;;;;;;20.99;67.92;101179.59;5102702;28;20020;-79
2021/09/27 13:14:29;;;;;;;0.10;0.10;;;;;;;20.68;68.10;101166.03;5070840;28;20402;-79
2021/09/27 13:17:11;;;;;;;0.10;0.10;;;;;;;20.67;69.25;101171.53;5066677;28;20067;-81
2021/09/27 13:25:19;;;;;;;0.10;0.10;;;;;;;20.65;69.35;101177.00;5106465;27;20487;-80
2021/09/27 13:27:54;;;;;;;0.10;0.10;;;;;;;20.63;69.36;101176.22;5089652;28;20055;-81
2021/09/27 13:30:28;;;;;;;1.33;0.40;;;;;;;20.69;69.88;101172.31;5082682;28;20031;-78
2021/09/27 13:32:59;;;;;;;0.10;0.10;;;;;;;20.69;69.79;101178.56;5079916;28;20116;-80
2021/09/27 13:35:31;;;;;;;0.57;0.57;;;;;;;20.67;69.54;101179.59;5081134;28;20496;-80
2021/09/27 13:37:59;;;;;;;;;;;;;;;20.77;69.34;101193.44;5075268;28;20039;-79
2021/09/27 13:46:05;;;;;;;0.32;0.32;;;;;;;20.68;69.08;101225.28;5071332;28;20418;-82
2021/09/27 13:48:31;;;;;;;0.10;0.10;;;;;;;20.49;69.26;101219.22;5037049;28;20033;-81
2021/09/27 13:51:00;;;;;;;0.28;0.28;;;;;;;20.11;69.95;101244.59;5060474;28;20037;-82
2021/09/27 13:53:46;;;;;;;0.10;0.10;;;;;;;20.43;68.85;101233.00;5032007;28;20423;-81
2021/09/27 13:56:17;;;;;;;0.08;0.08;;;;;;;20.25;68.78;101240.25;5041289;28;20037;-80
2021/09/27 13:58:46;;;;;;;0.10;0.10;;;;;;;20.26;68.35;101244.69;5030430;28;20472;-81
2021/09/27 14:01:14;;;;;;;0.10;0.10;;;;;;;20.10;67.60;101250.03;5044399;28;20028;-79
2021/09/27 14:03:40;;;;;;;0.32;0.32;;;;;;;20.20;67.55;101256.66;5049628;28;20443;-80
2021/09/27 14:06:06;;;;;;;0.10;0.10;;;;;;;19.77;66.42;101275.91;5049096;28;20034;-78
2021/09/27 14:08:33;;;;;;;0.10;0.10;;;;;;;19.70;65.34;101282.53;5038989;28;20092;-79
2021/09/27 14:10:59;;;;;;;0.10;0.10;;;;;;;19.70;65.90;101283.41;5047661;28;20037;-79
2021/09/27 14:13:30;;;;;;;0.10;0.10;;;;;;;19.54;66.17;101291.38;5049361;28;20026;-78
2021/09/27 14:15:58;;;;;;;0.75;0.75;;;;;;;19.36;66.24;101293.16;5038642;28;20484;-79
2021/09/27 14:18:25;;;;;;;0.32;0.28;;;;;;;19.55;65.75;101297.63;5033808;28;20021;-79
2021/09/27 14:20:52;;;;;;;0.20;0.20;;;;;;;19.42;66.26;101289.31;5048993;28;20516;-80
2021/09/27 14:23:18;;;;;;;0.10;0.10;;;;;;;19.47;64.76;101294.47;5050169;28;20029;-80
2021/09/27 14:25:46;;;;;;;0.10;0.10;;;;;;;19.44;65.81;101313.41;5050256;28;20056;-80
2021/09/27 14:28:14;;;;;;;0.10;0.10;;;;;;;19.54;65.11;101325.47;5049169;28;20065;-81
2021/09/27 14:30:41;;;;;;;0.05;0.05;;;;;;;19.59;64.93;101315.34;5047868;28;20029;-83
2021/09/27 14:33:07;;;;;;;0.10;0.10;;;;;;;19.60;65.18;101325.16;5049694;28;20025;-80
2021/09/27 14:35:36;;;;;;;0.20;0.20;;;;;;;19.68;65.11;101325.63;5049336;28;20033;-78
2021/09/27 14:38:04;;;;;;;0.10;0.10;;;;;;;19.66;64.81;101324.81;5049492;28;20022;-79
2021/09/27 14:40:31;;;;;;;0.95;0.95;;;;;;;19.88;64.95;101331.84;5049609;28;20393;-79
2021/09/27 14:42:57;;;;;;;0.13;0.13;;;;;;;19.98;64.37;101333.09;5043782;28;20044;-79
2021/09/27 14:45:24;;;;;;;0.10;0.10;;;;;;;20.14;63.43;101340.38;5037376;28;20037;-79
2021/09/27 14:47:51;;;;;;;0.00;0.00;;;;;;;20.07;61.52;101352.41;5029575;28;20029;-80
2021/09/27 14:50:22;;;;;;;0.80;0.80;;;;;;;20.25;60.56;101347.88;5041861;28;20025;-79
2021/09/27 14:52:49;;;;;;;0.10;0.10;;;;;;;20.42;60.02;101390.06;5044008;28;20480;-79
2021/09/27 14:55:16;;;;;;;0.45;0.45;;;;;;;20.48;58.32;101354.75;5047771;28;20120;-79
2021/09/27 14:57:43;;;;;;;0.10;0.10;;;;;;;20.66;58.29;101355.56;5033604;28;20157;-79
2021/09/27 15:00:13;;;;;;;0.10;0.10;;;;;;;20.90;57.93;101366.84;5049059;28;20036;-79
2021/09/27 15:02:39;;;;;;;37.83;2.47;;;;;;;20.78;56.37;101381.00;5044220;28;20045;-80
2021/09/27 15:05:07;;;;;;;0.10;0.10;;;;;;;20.87;56.95;101388.53;5046836;28;20124;-79
2021/09/27 15:07:33;;;;;;;0.10;0.10;;;;;;;20.72;57.53;101400.16;5037775;28;20041;-80
2021/09/27 15:10:00;;;;;;;0.10;0.10;;;;;;;20.63;57.62;101405.03;5030006;28;20025;-76
2021/09/27 15:12:26;;;;;;;0.00;0.00;;;;;;;20.38;56.77;101421.63;5033796;28;20132;-82
2021/09/27 15:14:52;;;;;;;0.10;0.10;;;;;;;20.59;56.50;101425.03;5034033;28;20390;-80
2021/09/27 15:17:23;;;;;;;0.20;0.20;;;;;;;20.68;55.90;101429.91;5034915;28;20116;-79
2021/09/27 15:19:49;;;;;;;0.10;0.10;;;;;;;20.43;55.22;101438.41;5034441;28;20048;-80
2021/09/27 15:22:15;;;;;;;0.10;0.10;;;;;;;20.53;55.31;101441.50;5028033;28;20032;-80
2021/09/27 15:24:44;;;;;;;0.10;0.10;;;;;;;20.63;54.90;101452.66;5031618;28;20610;-82
2021/09/27 15:27:10;;;;;;;0.10;0.10;;;;;;;20.49;54.81;101450.69;5019234;28;20037;-81
2021/09/27 15:29:36;;;;;;;0.10;0.10;;;;;;;20.62;54.80;101464.38;5015801;28;20030;-82
2021/09/27 15:32:07;;;;;;;0.28;0.28;;;;;;;20.51;53.92;101456.84;5016792;28;20037;-82
2021/09/27 15:34:39;;;;;;;0.10;0.10;;;;;;;20.62;54.27;101467.06;5016007;28;20083;-81